Time;durP1;ratioP1;P1;durP2;ratioP2;P2;SDS_P1;SDS_P2;PMS_P1;PMS_P2;Temp;Humidity;BMP_temperature;BMP_pressure;BME280_temperature;BME280_humidity;BME280_pressure;Samples;Min_cycle;Max_cycle;Signal;HPM_P1;HPM_P2
2022/02/08 00:01:14;;;;;;;17.95;3.10;;;;;;;4.80;80.68;102473.75;5036831;28;20128;-69
2022/02/08 00:03:39;;;;;;;22.20;3.95;;;;;;;4.76;80.90;102473.06;5026134;28;20090;-69
2022/02/08 00:08:49;;;;;;;18.40;3.45;;;;;;;4.75;81.20;102462.91;5041894;28;20403;-70
2022/02/08 00:11:14;;;;;;;15.88;3.38;;;;;;;4.78;81.21;102460.97;5040727;28;20036;-70
2022/02/08 00:13:40;;;;;;;24.85;3.42;;;;;;;4.72;81.97;102468.19;5007866;28;20036;-69
2022/02/08 00:16:05;;;;;;;24.23;4.10;;;;;;;4.87;81.77;102465.66;5025551;28;20114;-70
2022/02/08 00:18:31;;;;;;;21.23;3.65;;;;;;;4.85;82.01;102459.75;5042014;28;20575;-69
2022/02/08 00:20:56;;;;;;;29.40;3.45;;;;;;;4.90;82.15;102456.97;5020587;28;20120;-69
2022/02/08 00:23:22;;;;;;;25.90;4.32;;;;;;;5.06;82.29;102454.44;5037313;28;20033;-70
2022/02/08 00:25:47;;;;;;;14.77;2.97;;;;;;;5.01;82.50;102451.25;5038426;28;20091;-70
2022/02/08 00:28:13;;;;;;;21.98;3.67;;;;;;;5.04;82.20;102445.97;4998120;28;20736;-69
2022/02/08 00:30:38;;;;;;;18.63;3.30;;;;;;;5.02;82.68;102446.03;5019875;28;20040;-69
2022/02/08 00:33:05;;;;;;;22.83;3.92;;;;;;;4.95;82.86;102446.44;5016537;28;20021;-69
2022/02/08 00:35:30;;;;;;;27.42;3.50;;;;;;;4.96;83.20;102443.78;5005087;28;20040;-69
2022/02/08 00:37:56;;;;;;;22.65;4.70;;;;;;;5.03;83.64;102455.44;5040714;28;20041;-69
2022/02/08 00:40:22;;;;;;;26.88;4.82;;;;;;;5.02;83.74;102456.31;5038902;28;20034;-69
2022/02/08 00:42:48;;;;;;;17.40;3.78;;;;;;;5.01;84.18;102449.53;5020420;28;20534;-69
2022/02/08 00:45:26;;;;;;;16.40;4.15;;;;;;;5.05;84.37;102450.22;5019945;28;20108;-69
2022/02/08 00:48:03;;;;;;;33.53;4.82;;;;;;;4.86;85.40;102452.91;5039168;28;20041;-69
2022/02/08 00:50:29;;;;;;;23.02;4.50;;;;;;;4.95;85.83;102451.56;5043547;28;20832;-69
2022/02/08 00:52:55;;;;;;;33.50;3.95;;;;;;;4.85;86.35;102449.47;5023946;28;20033;-69
2022/02/08 00:55:20;;;;;;;24.30;3.53;;;;;;;4.93;86.80;102453.41;5018080;28;20479;-70
2022/02/08 00:57:46;;;;;;;26.98;3.63;;;;;;;4.94;87.34;102449.94;5023900;28;20033;-69
2022/02/08 01:00:12;;;;;;;31.38;4.53;;;;;;;4.92;87.53;102454.31;5042043;28;20025;-69
2022/02/08 01:02:38;;;;;;;23.08;4.10;;;;;;;4.90;87.86;102448.41;5007553;28;20040;-70
2022/02/08 01:05:06;;;;;;;27.65;5.10;;;;;;;4.85;88.50;102449.47;5040929;28;20027;-69
2022/02/08 01:07:32;;;;;;;29.77;4.53;;;;;;;4.84;89.05;102442.69;5021566;28;20037;-69
2022/02/08 01:10:00;;;;;;;20.23;3.55;;;;;;;4.82;88.94;102444.50;5014297;28;20712;-70
2022/02/08 01:12:28;;;;;;;17.63;3.78;;;;;;;4.90;89.90;102448.41;5019306;28;20033;-69
2022/02/08 01:14:56;;;;;;;24.92;3.75;;;;;;;4.86;90.21;102453.72;5021352;28;20513;-69
2022/02/08 01:17:23;;;;;;;23.08;3.60;;;;;;;4.71;91.33;102436.50;5021854;28;20073;-70
2022/02/08 01:19:56;;;;;;;36.50;4.47;;;;;;;4.67;92.50;102446.13;5022073;28;20029;-69
2022/02/08 01:22:22;;;;;;;;;;;;;;;4.76;93.18;102449.13;5006353;28;20316;-69
2022/02/08 01:24:49;;;;;;;21.83;3.90;;;;;;;4.71;94.13;102454.50;5040898;28;20275;-70
2022/02/08 01:27:16;;;;;;;19.30;3.97;;;;;;;4.59;94.55;102442.25;5026098;28;20529;-69
2022/02/08 01:29:55;;;;;;;23.13;4.93;;;;;;;4.60;94.93;102454.22;5023267;28;20148;-69
2022/02/08 01:37:26;;;;;;;22.55;3.95;;;;;;;4.64;95.86;102445.44;5022763;28;20398;-69
2022/02/08 01:48:12;;;;;;;27.00;4.40;;;;;;;4.51;96.46;102441.81;5039484;28;20029;-69
2022/02/08 01:50:40;;;;;;;30.50;5.22;;;;;;;4.48;97.34;102445.34;5017929;28;20091;-70
2022/02/08 01:53:08;;;;;;;30.55;4.88;;;;;;;4.67;97.00;102437.56;5025165;28;20403;-70
2022/02/08 01:55:37;;;;;;;17.67;4.03;;;;;;;4.64;97.29;102437.72;5022420;28;20048;-69
2022/02/08 01:58:04;;;;;;;18.20;4.25;;;;;;;4.63;96.79;102446.34;5042345;28;20037;-69
2022/02/08 02:00:31;;;;;;;23.95;4.13;;;;;;;4.57;97.70;102438.94;5026521;28;20033;-69
2022/02/08 02:02:57;;;;;;;20.98;3.90;;;;;;;4.55;97.40;102433.88;5040395;28;20048;-70
2022/02/08 02:05:30;;;;;;;22.70;4.68;;;;;;;4.60;97.58;102438.78;5018614;28;20038;-70
2022/02/08 02:07:57;;;;;;;23.40;4.90;;;;;;;4.65;97.77;102440.22;5021289;28;20090;-70
2022/02/08 02:10:24;;;;;;;26.50;4.78;;;;;;;4.77;97.53;102437.94;5029308;28;20417;-69
2022/02/08 02:13:00;;;;;;;18.55;4.68;;;;;;;4.65;97.53;102437.66;5024789;28;20076;-69
2022/02/08 02:15:33;;;;;;;19.67;4.30;;;;;;;4.64;97.94;102430.84;5024844;28;20047;-69
2022/02/08 02:17:59;;;;;;;14.70;5.55;;;;;;;4.56;98.29;102429.56;5022537;28;20462;-69
2022/02/08 02:20:29;;;;;;;20.35;5.03;;;;;;;4.65;98.97;102431.66;5024571;28;20395;-67
2022/02/08 02:22:54;;;;;;;21.60;6.03;;;;;;;4.61;99.32;102425.84;5002261;28;20124;-67
2022/02/08 02:25:23;;;;;;;19.60;6.82;;;;;;;4.70;99.64;102427.13;5024699;28;20111;-67
2022/02/08 02:27:50;;;;;;;17.55;4.60;;;;;;;4.78;99.31;102413.88;5041970;28;20491;-67
2022/02/08 02:30:16;;;;;;;17.95;4.30;;;;;;;4.78;98.97;102422.41;5012633;28;20036;-67
2022/02/08 02:32:42;;;;;;;15.35;4.57;;;;;;;4.74;99.66;102415.78;5022722;28;20061;-67
2022/02/08 02:35:08;;;;;;;23.70;6.28;;;;;;;4.78;99.86;102414.72;5019823;28;20057;-67
2022/02/08 02:37:34;;;;;;;20.92;6.55;;;;;;;4.68;99.62;102409.22;5021616;28;20740;-67
2022/02/08 02:39:59;;;;;;;19.23;5.00;;;;;;;4.75;100.00;102402.03;5006280;28;20034;-68
2022/02/08 02:42:27;;;;;;;17.25;4.82;;;;;;;4.80;100.00;102400.06;5023982;28;20469;-67
2022/02/08 02:44:55;;;;;;;21.02;4.85;;;;;;;4.82;100.00;102403.38;5023863;28;20029;-67
2022/02/08 02:47:23;;;;;;;20.55;6.03;;;;;;;4.84;100.00;102388.72;5009788;28;20094;-68
2022/02/08 02:49:49;;;;;;;19.85;5.68;;;;;;;4.82;100.00;102395.69;5024071;28;20040;-67
2022/02/08 02:52:14;;;;;;;20.08;5.93;;;;;;;4.91;100.00;102393.53;5022333;28;20087;-67
2022/02/08 02:54:43;;;;;;;18.10;5.72;;;;;;;4.94;100.00;102389.06;5007504;28;20463;-67
2022/02/08 02:57:12;;;;;;;19.38;5.82;;;;;;;4.99;99.83;102394.78;5020680;28;20102;-67
2022/02/08 02:59:40;;;;;;;14.63;5.63;;;;;;;4.99;100.00;102396.50;5007560;28;20076;-68
2022/02/08 03:05:57;;;;;;;16.38;5.82;;;;;;;4.90;100.00;102395.28;5019978;28;20152;-67
2022/02/08 03:18:38;;;;;;;19.83;7.30;;;;;;;5.09;100.00;102408.00;5035665;28;20060;-67
2022/02/08 03:21:06;;;;;;;23.80;7.30;;;;;;;5.05;100.00;102404.75;5022646;28;20055;-67
2022/02/08 03:23:35;;;;;;;22.25;7.65;;;;;;;5.15;100.00;102399.94;5022885;28;20060;-67
2022/02/08 03:26:03;;;;;;;23.33;6.90;;;;;;;5.12;100.00;102405.25;5018546;28;20518;-67
2022/02/08 03:28:33;;;;;;;20.85;7.35;;;;;;;5.22;100.00;102406.44;5022863;28;20423;-67
2022/02/08 03:31:00;;;;;;;21.73;7.97;;;;;;;5.20;100.00;102402.28;5022845;28;20040;-68
2022/02/08 03:33:29;;;;;;;17.02;6.95;;;;;;;5.15;100.00;102394.81;5005896;28;20036;-67
2022/02/08 03:35:56;;;;;;;26.13;8.18;;;;;;;5.26;100.00;102397.63;5019656;28;20569;-68
2022/02/08 03:38:39;;;;;;;20.88;7.63;;;;;;;5.24;100.00;102404.59;5024675;28;20029;-68
2022/02/08 03:41:09;;;;;;;18.63;7.45;;;;;;;5.32;100.00;102399.03;5033774;28;20458;-67
2022/02/08 03:43:40;;;;;;;25.80;8.15;;;;;;;5.34;100.00;102411.81;5004873;28;20037;-67
2022/02/08 03:46:13;;;;;;;20.65;7.75;;;;;;;5.25;100.00;102410.56;5004229;28;20053;-68
2022/02/08 03:48:40;;;;;;;15.45;7.65;;;;;;;5.30;100.00;102415.47;5006175;28;20033;-68
2022/02/08 03:51:10;;;;;;;19.00;8.60;;;;;;;5.44;100.00;102416.41;5021574;28;20115;-68
2022/02/08 03:53:44;;;;;;;17.17;8.35;;;;;;;5.44;100.00;102424.13;5022495;28;20032;-68
2022/02/08 03:56:12;;;;;;;20.17;8.82;;;;;;;5.45;100.00;102424.94;5022636;28;20033;-66
2022/02/08 03:58:39;;;;;;;26.65;10.82;;;;;;;5.48;100.00;102419.59;5018864;28;20048;-68
2022/02/08 04:06:36;;;;;;;24.10;9.27;;;;;;;5.49;100.00;102421.28;5025588;28;20112;-67
2022/02/08 04:09:04;;;;;;;22.15;10.52;;;;;;;5.59;100.00;102421.59;5019158;28;20514;-67
2022/02/08 04:11:33;;;;;;;30.48;12.90;;;;;;;5.52;100.00;102422.84;5040173;28;20048;-68
2022/02/08 04:14:16;;;;;;;28.45;10.85;;;;;;;5.56;100.00;102425.19;5018876;28;20671;-67
2022/02/08 04:16:42;;;;;;;22.55;10.35;;;;;;;5.58;100.00;102422.53;5018822;28;20144;-67
2022/02/08 04:19:29;;;;;;;24.23;10.70;;;;;;;5.63;100.00;102423.94;5037433;28;20526;-67
2022/02/08 04:33:19;;;;;;;21.25;9.90;;;;;;;5.82;100.00;102443.50;5036851;28;20098;-67
2022/02/08 04:38:22;;;;;;;20.45;10.27;;;;;;;5.89;100.00;102439.69;5037519;28;20056;-67
2022/02/08 04:40:56;;;;;;;18.95;9.73;;;;;;;5.84;100.00;102457.16;5038877;28;20102;-68
2022/02/08 04:43:32;;;;;;;24.63;10.18;;;;;;;5.75;100.00;102452.50;5039161;28;20049;-68
2022/02/08 04:46:07;;;;;;;18.35;9.73;;;;;;;5.69;100.00;102445.09;5038832;28;20049;-68
2022/02/08 04:48:45;;;;;;;21.98;10.52;;;;;;;5.72;100.00;102438.03;5037392;28;20124;-67
2022/02/08 05:44:46;;;;;;;20.80;11.98;;;;;;;5.83;100.00;102434.88;5040566;28;20033;-67
2022/02/08 05:47:11;;;;;;;22.27;12.10;;;;;;;5.78;100.00;102430.00;5039522;28;20065;-68
2022/02/08 05:54:38;;;;;;;20.33;10.85;;;;;;;5.76;100.00;102433.56;5038750;28;20288;-68
2022/02/08 05:57:04;;;;;;;23.58;12.10;;;;;;;5.76;100.00;102425.84;5039842;28;20036;-67
2022/02/08 05:59:30;;;;;;;20.67;10.25;;;;;;;5.79;100.00;102434.22;5037843;28;20045;-68
2022/02/08 06:01:56;;;;;;;18.95;11.35;;;;;;;5.73;100.00;102429.41;5037056;28;20084;-68
2022/02/08 06:04:38;;;;;;;23.58;11.23;;;;;;;5.73;100.00;102432.00;5020098;28;20030;-68
2022/02/08 06:07:05;;;;;;;21.25;11.38;;;;;;;5.89;100.00;102428.56;5039131;28;20084;-68
2022/02/08 06:09:31;;;;;;;17.88;10.52;;;;;;;5.93;100.00;102420.56;5038491;28;20045;-67
2022/02/08 06:11:57;;;;;;;19.65;10.48;;;;;;;5.84;100.00;102408.22;5041410;28;20067;-68
2022/02/08 06:14:26;;;;;;;21.55;10.50;;;;;;;5.82;100.00;102413.47;5027859;28;20033;-68
2022/02/08 06:16:53;;;;;;;18.60;10.68;;;;;;;5.85;100.00;102420.19;5027454;28;20521;-67
2022/02/08 06:19:18;;;;;;;25.65;11.18;;;;;;;5.82;100.00;102418.59;5023339;28;20029;-67
2022/02/08 06:21:44;;;;;;;15.65;9.63;;;;;;;5.84;100.00;102411.63;5045877;28;20033;-68
2022/02/08 06:24:09;;;;;;;18.42;9.50;;;;;;;5.85;100.00;102420.19;5005275;28;20024;-67
2022/02/08 06:26:35;;;;;;;17.85;9.50;;;;;;;5.93;100.00;102422.31;5022819;28;20618;-68
2022/02/08 06:29:08;;;;;;;17.65;9.20;;;;;;;5.84;100.00;102421.94;5006202;28;20748;-68
2022/02/08 06:31:33;;;;;;;;;;;;;;;5.83;100.00;102415.09;5024441;28;20667;-68
2022/02/08 06:33:59;;;;;;;20.13;9.57;;;;;;;5.95;100.00;102420.47;5024822;28;19920;-68
2022/02/08 06:36:24;;;;;;;16.10;10.30;;;;;;;5.95;100.00;102426.50;5043436;28;20574;-68
2022/02/08 06:38:50;;;;;;;20.48;10.48;;;;;;;5.93;100.00;102423.13;5020663;28;21005;-68
2022/02/08 06:41:16;;;;;;;23.15;10.18;;;;;;;6.03;100.00;102426.91;5023811;28;20037;-68
2022/02/08 06:43:42;;;;;;;18.05;9.30;;;;;;;6.00;100.00;102421.91;5025981;28;20037;-67
2022/02/08 06:46:07;;;;;;;16.95;9.77;;;;;;;6.16;100.00;102413.31;5041537;28;20037;-68
2022/02/08 06:48:33;;;;;;;21.48;9.65;;;;;;;6.18;100.00;102416.66;5024318;28;20074;-67
2022/02/08 06:51:00;;;;;;;13.70;8.57;;;;;;;6.19;100.00;102431.19;5023270;28;20119;-68
2022/02/08 06:53:26;;;;;;;15.75;8.77;;;;;;;6.18;100.00;102427.78;5023053;28;20067;-68
2022/02/08 06:55:52;;;;;;;15.00;8.88;;;;;;;6.08;100.00;102428.38;5025434;28;20043;-67
2022/02/08 06:58:19;;;;;;;16.23;8.63;;;;;;;6.13;100.00;102431.53;5023391;28;20040;-68
2022/02/08 07:00:47;;;;;;;19.70;8.88;;;;;;;6.23;100.00;102435.22;5041606;28;20037;-68
2022/02/08 07:03:15;;;;;;;13.73;8.13;;;;;;;6.24;100.00;102430.00;5024474;28;20052;-68
2022/02/08 07:05:42;;;;;;;15.65;8.02;;;;;;;6.22;100.00;102431.84;5024635;28;20064;-67
2022/02/08 07:08:09;;;;;;;15.60;8.48;;;;;;;6.26;100.00;102432.50;5010080;28;20132;-68
2022/02/08 07:10:35;;;;;;;15.40;8.23;;;;;;;6.30;100.00;102433.16;5040487;28;20033;-67
2022/02/08 07:13:02;;;;;;;15.07;7.85;;;;;;;6.34;100.00;102435.44;5022974;28;20024;-68
2022/02/08 07:15:28;;;;;;;15.25;8.15;;;;;;;6.34;100.00;102442.34;5024205;28;20037;-68
2022/02/08 07:17:53;;;;;;;21.92;8.40;;;;;;;6.31;100.00;102452.81;5042161;28;20048;-68
2022/02/08 07:20:19;;;;;;;15.02;8.43;;;;;;;6.37;100.00;102452.50;5043386;28;20037;-67
2022/02/08 07:22:46;;;;;;;18.40;8.38;;;;;;;6.39;100.00;102454.06;5022434;28;20040;-67
2022/02/08 07:25:12;;;;;;;15.20;8.48;;;;;;;6.38;100.00;102446.41;5021544;28;20075;-67
2022/02/08 07:27:38;;;;;;;16.52;8.45;;;;;;;6.48;100.00;102454.44;5023678;28;20079;-67
2022/02/08 07:30:10;;;;;;;18.05;8.93;;;;;;;6.41;100.00;102456.56;5041333;28;20036;-68
2022/02/08 07:32:38;;;;;;;17.33;8.07;;;;;;;6.54;100.00;102461.84;5023986;28;20235;-67
2022/02/08 07:42:53;;;;;;;17.30;9.18;;;;;;;6.58;100.00;102453.81;5048427;28;20094;-67
2022/02/08 07:45:19;;;;;;;19.38;10.40;;;;;;;6.62;100.00;102452.72;5022198;28;20590;-68
2022/02/08 07:47:44;;;;;;;19.10;10.63;;;;;;;6.55;100.00;102451.41;5038652;28;20039;-67
2022/02/08 07:50:09;;;;;;;19.98;10.23;;;;;;;6.59;100.00;102455.50;5022674;28;20041;-67
2022/02/08 07:52:35;;;;;;;17.75;9.88;;;;;;;6.69;100.00;102468.66;5022238;28;20095;-68
2022/02/08 07:55:00;;;;;;;18.98;9.55;;;;;;;6.76;100.00;102462.25;5038812;28;20028;-67
2022/02/08 07:57:26;;;;;;;16.85;9.45;;;;;;;6.77;100.00;102450.16;5024264;28;20029;-67
2022/02/08 07:59:52;;;;;;;23.55;10.05;;;;;;;6.77;100.00;102458.72;5041524;28;20040;-68
2022/02/08 08:02:17;;;;;;;20.45;9.27;;;;;;;6.85;100.00;102465.19;5021306;28;20045;-67
2022/02/08 08:04:42;;;;;;;18.20;9.07;;;;;;;6.88;100.00;102460.69;5050206;28;20139;-68
2022/02/08 08:07:08;;;;;;;15.55;9.07;;;;;;;6.91;100.00;102464.81;5031631;28;20021;-68
2022/02/08 08:09:39;;;;;;;23.65;9.57;;;;;;;6.92;100.00;102464.72;5023219;28;20082;-68
2022/02/08 08:12:05;;;;;;;18.88;10.65;;;;;;;6.79;100.00;102461.22;5008129;28;20043;-67
2022/02/08 08:14:32;;;;;;;21.80;9.27;;;;;;;6.86;100.00;102453.97;5039796;28;20032;-67
2022/02/08 08:17:14;;;;;;;17.92;8.98;;;;;;;6.93;100.00;102463.81;5021861;28;20183;-67
2022/02/08 08:19:40;;;;;;;21.10;9.48;;;;;;;6.94;100.00;102459.47;5019534;28;20518;-69
2022/02/08 08:22:10;;;;;;;23.52;9.40;;;;;;;6.97;100.00;102441.25;5041363;28;20032;-70
2022/02/08 08:24:35;;;;;;;21.70;9.25;;;;;;;7.02;100.00;102446.94;5041070;28;20143;-69
2022/02/08 08:27:02;;;;;;;21.55;8.73;;;;;;;7.03;100.00;102456.34;5019320;28;20119;-69
2022/02/08 08:29:28;;;;;;;17.45;8.05;;;;;;;7.04;100.00;102450.25;5056670;28;20059;-69
2022/02/08 08:31:53;;;;;;;15.13;7.72;;;;;;;7.14;100.00;102451.38;5043630;28;20033;-70
2022/02/08 08:34:19;;;;;;;18.67;8.48;;;;;;;7.19;100.00;102446.75;5022612;28;20052;-70
2022/02/08 08:36:46;;;;;;;15.38;8.02;;;;;;;7.24;100.00;102446.47;5043235;28;20041;-70
2022/02/08 08:39:13;;;;;;;19.88;8.23;;;;;;;7.19;100.00;102454.47;5039728;28;20514;-69
2022/02/08 08:41:51;;;;;;;16.13;7.32;;;;;;;7.30;100.00;102448.66;5044300;28;20063;-69
2022/02/08 08:52:10;;;;;;;13.13;7.30;;;;;;;7.39;100.00;102461.00;5038133;28;20029;-70
2022/02/08 08:54:35;;;;;;;13.82;7.57;;;;;;;7.54;100.00;102459.22;5022213;28;20677;-69
2022/02/08 08:57:01;;;;;;;21.77;9.13;;;;;;;7.53;100.00;102449.00;5042692;28;20029;-70
2022/02/08 08:59:26;;;;;;;16.52;7.68;;;;;;;7.53;100.00;102451.59;5004907;28;20036;-70
2022/02/08 09:01:52;;;;;;;17.38;8.07;;;;;;;7.54;100.00;102461.00;5026187;28;20033;-70
2022/02/08 09:04:18;;;;;;;18.98;7.75;;;;;;;7.59;99.88;102452.03;5021215;28;20041;-70
2022/02/08 09:06:46;;;;;;;19.00;7.22;;;;;;;7.60;100.00;102458.84;5041049;28;20656;-70
2022/02/08 09:09:15;;;;;;;15.55;7.38;;;;;;;7.68;99.70;102466.09;5021397;28;20029;-69
2022/02/08 09:14:47;;;;;;;17.25;7.18;;;;;;;7.82;98.64;102467.00;5036734;28;20033;-71
2022/02/08 09:25:16;;;;;;;14.32;6.93;;;;;;;7.97;98.01;102471.19;5023893;28;20124;-70
2022/02/08 09:30:15;;;;;;;14.15;6.07;;;;;;;8.14;97.45;102472.69;5020854;28;20037;-70
2022/02/08 09:32:44;;;;;;;15.68;7.18;;;;;;;8.05;96.97;102473.28;5025041;28;20029;-69
2022/02/08 09:35:11;;;;;;;15.38;5.63;;;;;;;8.04;97.38;102477.59;5037209;28;20036;-70
2022/02/08 09:37:38;;;;;;;13.68;6.85;;;;;;;8.12;97.21;102482.31;5020134;28;20033;-69
2022/02/08 09:40:06;;;;;;;14.15;6.10;;;;;;;8.18;96.87;102474.97;5024192;28;20036;-69
2022/02/08 09:42:32;;;;;;;13.55;6.20;;;;;;;8.21;96.19;102483.47;5035693;28;20080;-70
2022/02/08 09:44:59;;;;;;;15.45;5.85;;;;;;;8.11;96.88;102481.47;5017208;28;20029;-70
2022/02/08 09:47:43;;;;;;;13.07;5.60;;;;;;;8.11;96.62;102478.06;5045985;28;20056;-69
2022/02/08 09:50:16;;;;;;;17.90;5.78;;;;;;;8.12;97.01;102484.91;5023604;28;20052;-70
2022/02/08 09:52:47;;;;;;;11.40;5.25;;;;;;;8.19;96.31;102483.53;5042965;28;20033;-71
2022/02/08 09:55:14;;;;;;;17.35;5.20;;;;;;;8.27;96.39;102483.06;5008526;28;20037;-69
2022/02/08 09:57:40;;;;;;;10.45;5.20;;;;;;;8.15;96.45;102488.09;5026283;28;20037;-70
2022/02/08 10:00:06;;;;;;;15.80;5.45;;;;;;;8.10;96.75;102489.31;5022811;28;20076;-69
2022/02/08 10:02:37;;;;;;;14.70;5.05;;;;;;;8.21;96.22;102492.03;5008460;28;20049;-70
2022/02/08 10:05:05;;;;;;;12.07;4.85;;;;;;;8.26;96.10;102491.75;5027720;28;20029;-69
2022/02/08 10:07:35;;;;;;;17.45;5.65;;;;;;;8.26;95.46;102502.91;5022356;28;20121;-70
2022/02/08 10:10:04;;;;;;;12.10;5.13;;;;;;;8.23;95.98;102500.53;5032749;28;20138;-69
2022/02/08 10:12:59;;;;;;;14.70;4.82;;;;;;;8.34;95.38;102497.22;5026163;28;20039;-69
2022/02/08 10:19:34;;;;;;;12.98;4.60;;;;;;;8.27;95.52;102499.41;5016090;28;20032;-69
2022/02/08 10:23:58;;;;;;;10.65;4.65;;;;;;;8.30;95.06;102501.78;5016222;28;20044;-70
2022/02/08 10:29:25;;;;;;;9.75;4.35;;;;;;;8.40;94.88;102502.03;5047795;28;20075;-70
2022/02/08 10:32:17;;;;;;;9.38;4.53;;;;;;;8.51;94.43;102493.56;5019488;28;20033;-69
2022/02/08 10:37:41;;;;;;;12.55;3.60;;;;;;;8.37;94.23;102497.03;5044331;28;20045;-70
2022/02/08 10:40:22;;;;;;;11.13;3.88;;;;;;;8.46;94.28;102493.91;5039436;28;20558;-69
2022/02/08 10:42:55;;;;;;;8.98;3.85;;;;;;;8.49;93.80;102487.69;5021526;28;20453;-69
2022/02/08 10:45:24;;;;;;;11.93;4.20;;;;;;;8.60;93.02;102490.38;5028344;28;20144;-70
2022/02/08 10:48:09;;;;;;;6.25;2.97;;;;;;;8.66;93.24;102483.97;5042811;28;20234;-70
2022/02/08 10:50:47;;;;;;;9.95;3.38;;;;;;;8.63;92.80;102487.59;5045822;28;20032;-71
2022/02/08 10:53:14;;;;;;;8.82;3.42;;;;;;;8.82;91.70;102481.22;5041757;28;20048;-70
2022/02/08 10:58:39;;;;;;;11.13;3.33;;;;;;;8.77;91.57;102477.16;5041490;28;20048;-70
2022/02/08 11:04:04;;;;;;;8.05;3.22;;;;;;;8.81;91.63;102480.34;5043785;28;20025;-70
2022/02/08 11:09:10;;;;;;;7.65;2.35;;;;;;;8.84;91.04;102476.75;5040914;28;20060;-70
2022/02/08 11:11:59;;;;;;;5.97;2.50;;;;;;;8.84;90.48;102477.56;5040215;28;20094;-70
2022/02/08 11:17:53;;;;;;;11.35;3.05;;;;;;;8.92;89.67;102479.63;5021954;28;20036;-70
2022/02/08 11:20:23;;;;;;;16.50;3.30;;;;;;;8.95;89.32;102482.03;5042432;28;20048;-70
2022/02/08 11:23:00;;;;;;;11.15;1.70;;;;;;;9.00;88.05;102482.53;5022570;28;20168;-69
2022/02/08 11:25:35;;;;;;;8.75;1.98;;;;;;;9.07;88.61;102467.41;5019053;28;20103;-70
2022/02/08 11:28:44;;;;;;;6.07;2.30;;;;;;;9.12;87.96;102465.34;5040174;28;20029;-69
2022/02/08 11:31:16;;;;;;;10.75;2.17;;;;;;;9.07;87.81;102452.72;5041925;28;20060;-70
2022/02/08 12:01:43;;;;;;;6.90;2.28;;;;;;;9.60;84.73;102449.06;5018668;28;20044;-69
2022/02/08 12:04:33;;;;;;;;;;;;;;;9.59;84.31;102445.66;5038521;28;20033;-70
2022/02/08 12:09:38;;;;;;;9.75;2.55;;;;;;;9.62;84.15;102447.19;5033270;28;20052;-69
2022/02/08 12:12:34;;;;;;;7.25;1.50;;;;;;;9.65;84.69;102442.63;5021117;28;20040;-70
2022/02/08 12:32:34;;;;;;;7.63;1.25;;;;;;;9.81;83.09;102425.97;5015353;28;20048;-70
2022/02/08 12:54:37;;;;;;;5.85;1.23;;;;;;;10.06;81.94;102441.38;5041062;28;20542;-70
2022/02/08 13:19:24;;;;;;;8.18;1.33;;;;;;;10.17;80.56;102417.28;5003262;28;20110;-71
2022/02/08 14:02:10;;;;;;;8.65;1.48;;;;;;;10.29;78.96;102428.50;5041688;28;20041;-71
2022/02/08 14:07:25;;;;;;;7.38;2.13;;;;;;;10.26;78.93;102419.16;5027664;28;20040;-70
2022/02/08 14:12:45;;;;;;;7.85;1.48;;;;;;;10.22;79.18;102430.69;5041852;28;20045;-70
2022/02/08 14:18:03;;;;;;;3.80;1.10;;;;;;;10.29;78.40;102431.09;5040718;28;20036;-69
2022/02/08 15:08:40;;;;;;;5.53;1.00;;;;;;;10.04;79.63;102440.69;5045030;28;20144;-70
2022/02/08 15:11:09;;;;;;;3.70;1.20;;;;;;;10.01;80.30;102445.25;5018686;28;20554;-71
2022/02/08 15:13:36;;;;;;;7.57;1.10;;;;;;;10.05;80.16;102444.91;5020869;28;20499;-70
2022/02/08 15:16:09;;;;;;;6.70;0.90;;;;;;;10.01;80.54;102442.66;5037835;28;20041;-70
2022/02/08 15:18:34;;;;;;;2.42;0.85;;;;;;;10.08;80.24;102434.31;5023339;28;20167;-70
2022/02/08 15:21:03;;;;;;;3.10;0.80;;;;;;;10.06;80.41;102437.97;5045559;28;20033;-71
2022/02/08 15:23:29;;;;;;;3.13;0.85;;;;;;;9.94;80.55;102435.34;5027212;28;20041;-70
2022/02/08 15:25:58;;;;;;;3.40;0.60;;;;;;;9.93;81.41;102438.88;5040056;28;20505;-70
2022/02/08 15:28:25;;;;;;;6.35;1.00;;;;;;;9.86;81.59;102440.25;5037731;28;20037;-69
2022/02/08 15:30:55;;;;;;;6.07;1.20;;;;;;;9.83;81.86;102450.84;5040260;28;20037;-71
2022/02/08 15:33:22;;;;;;;4.18;0.93;;;;;;;9.71;82.67;102444.75;5038439;28;20037;-70
2022/02/08 15:35:48;;;;;;;3.40;0.80;;;;;;;9.79;82.31;102446.81;5022152;28;20028;-70
2022/02/08 15:38:14;;;;;;;4.47;1.08;;;;;;;9.82;82.70;102449.19;5016397;28;20033;-70
2022/02/08 15:40:40;;;;;;;3.33;0.98;;;;;;;9.89;82.73;102444.41;5019327;28;20044;-70
2022/02/08 15:43:05;;;;;;;2.75;0.70;;;;;;;9.83;82.74;102456.03;5035318;28;20029;-69
2022/02/08 15:45:35;;;;;;;3.78;0.70;;;;;;;9.81;83.38;102449.28;5042055;28;20028;-71
2022/02/08 15:48:01;;;;;;;4.32;1.00;;;;;;;9.65;84.26;102455.56;5022883;28;20376;-70
2022/02/08 15:55:37;;;;;;;70.47;23.10;;;;;;;9.74;84.30;102454.09;5041653;28;20082;-71
2022/02/08 16:09:07;;;;;;;62.25;27.23;;;;;;;9.60;85.24;102460.25;4988004;28;20160;-69
2022/02/08 16:14:22;;;;;;;27.98;15.95;;;;;;;9.51;85.63;102453.97;5032469;28;20853;-69
2022/02/08 16:32:44;;;;;;;3.70;1.40;;;;;;;9.47;86.16;102459.47;5015918;28;20299;-70
2022/02/08 16:46:10;;;;;;;5.85;2.20;;;;;;;9.22;86.93;102453.41;5036869;28;20135;-70
2022/02/08 16:56:55;;;;;;;4.95;1.63;;;;;;;9.14;86.37;102469.47;5044318;28;20120;-71
2022/02/08 16:59:28;;;;;;;7.90;1.80;;;;;;;9.19;86.20;102473.50;5015281;28;20061;-70
2022/02/08 17:01:57;;;;;;;3.72;2.05;;;;;;;9.10;86.71;102477.56;5016542;28;20118;-70
2022/02/08 17:04:23;;;;;;;4.32;1.85;;;;;;;9.04;86.86;102483.16;5033787;28;20033;-70
2022/02/08 17:06:48;;;;;;;8.40;1.63;;;;;;;9.15;86.59;102489.25;5040951;28;20412;-70
2022/02/08 17:09:19;;;;;;;7.80;1.63;;;;;;;9.11;86.61;102482.63;5017666;28;20666;-69
2022/02/08 17:11:51;;;;;;;3.90;1.30;;;;;;;9.13;86.66;102479.94;5038057;28;20083;-69
2022/02/08 17:14:28;;;;;;;7.22;1.40;;;;;;;9.13;86.17;102477.34;5027779;28;20090;-69
2022/02/08 17:37:39;;;;;;;5.90;1.50;;;;;;;8.83;87.99;102494.00;5021531;28;20648;-69
2022/02/08 17:49:49;;;;;;;5.25;2.05;;;;;;;8.74;88.17;102518.75;5038463;28;20094;-70
2022/02/08 17:52:15;;;;;;;9.63;2.42;;;;;;;8.85;88.10;102518.03;5020869;28;20041;-69
2022/02/08 17:54:40;;;;;;;6.45;2.45;;;;;;;8.78;87.86;102524.56;5018753;28;20029;-69
2022/02/08 17:57:06;;;;;;;7.75;2.85;;;;;;;8.83;87.70;102525.06;5044429;28;20116;-71
2022/02/08 17:59:35;;;;;;;6.93;2.85;;;;;;;8.75;88.36;102520.41;5021699;28;20467;-69
2022/02/08 18:02:00;;;;;;;9.32;2.47;;;;;;;8.84;87.68;102531.91;5024932;28;20488;-70
2022/02/08 18:04:26;;;;;;;3.70;2.28;;;;;;;8.77;88.09;102526.28;5008982;28;20044;-69
2022/02/08 18:06:51;;;;;;;7.78;2.70;;;;;;;8.79;88.23;102531.38;5018185;28;20040;-70
2022/02/08 18:09:19;;;;;;;5.95;2.75;;;;;;;8.70;88.45;102529.38;5018257;28;20029;-69
2022/02/08 18:11:45;;;;;;;4.60;2.15;;;;;;;8.66;88.88;102530.53;5022661;28;20116;-69
2022/02/08 18:14:16;;;;;;;5.57;2.13;;;;;;;8.74;88.12;102518.75;5019642;28;20036;-70
2022/02/08 18:16:41;;;;;;;6.35;2.13;;;;;;;8.89;87.92;102531.56;5032782;28;20071;-70
2022/02/08 18:19:17;;;;;;;13.13;2.25;;;;;;;8.83;87.71;102534.59;5024227;28;20475;-69
2022/02/08 18:21:58;;;;;;;5.20;2.08;;;;;;;8.87;88.05;102531.72;5050183;28;20579;-69
2022/02/08 18:24:52;;;;;;;5.13;2.30;;;;;;;8.92;87.63;102536.56;5044901;28;20087;-70
2022/02/08 18:57:17;;;;;;;5.82;1.65;;;;;;;8.75;86.73;102535.91;5056441;28;20562;-68
2022/02/08 19:21:10;;;;;;;3.60;1.40;;;;;;;8.85;85.37;102524.97;5038580;28;20048;-68
2022/02/08 19:23:37;;;;;;;2.08;1.27;;;;;;;8.89;84.86;102521.22;5035223;28;20099;-69
2022/02/08 19:26:05;;;;;;;7.45;1.77;;;;;;;8.86;84.89;102517.09;5020315;28;20032;-70
2022/02/08 19:28:31;;;;;;;3.17;1.30;;;;;;;8.73;85.40;102511.91;5006871;28;20395;-69
2022/02/08 19:30:57;;;;;;;5.13;1.65;;;;;;;8.66;86.02;102527.94;5022516;28;20037;-70
2022/02/08 19:33:25;;;;;;;4.30;1.42;;;;;;;8.72;85.83;102520.63;5023654;28;20800;-69
2022/02/08 19:35:51;;;;;;;3.03;1.20;;;;;;;8.80;85.48;102527.88;5043272;28;20372;-70